Time;durP1;ratioP1;P1;durP2;ratioP2;P2;SDS_P1;SDS_P2;PMS_P1;PMS_P2;Temp;Humidity;BMP_temperature;BMP_pressure;BME280_temperature;BME280_humidity;BME280_pressure;Samples;Min_cycle;Max_cycle;Signal;HPM_P1;HPM_P2
2022/05/12 00:02:20;;;;;;;0.10;0.10;;;;;;;;;;5092966;28;20032;-59
2022/05/12 00:04:46;;;;;;;0.15;0.15;;;;;;;;;;5093295;28;20092;-60
2022/05/12 00:07:11;;;;;;;0.10;0.10;;;;;;;;;;5075065;28;20032;-60
2022/05/12 00:09:37;;;;;;;0.10;0.10;;;;;;;;;;5093010;28;20036;-59
2022/05/12 00:12:03;;;;;;;0.10;0.10;;;;;;;;;;5093008;28;20474;-60
2022/05/12 00:14:28;;;;;;;0.10;0.10;;;;;;;;;;5074919;28;20032;-60
2022/05/12 00:16:56;;;;;;;0.10;0.10;;;;;;;;;;5092730;28;20043;-60
2022/05/12 00:19:23;;;;;;;0.35;0.35;;;;;;;;;;5074905;28;20032;-60
2022/05/12 00:21:48;;;;;;;0.10;0.10;;;;;;;;;;5092921;28;20028;-60
2022/05/12 00:24:16;;;;;;;0.10;0.10;;;;;;;;;;5092908;28;20031;-60
2022/05/12 00:26:42;;;;;;;0.20;0.20;;;;;;;;;;5074668;28;20506;-60
2022/05/12 00:29:08;;;;;;;0.10;0.10;;;;;;;;;;5042887;28;20028;-60
2022/05/12 00:31:35;;;;;;;0.10;0.10;;;;;;;;;;5071440;28;20047;-60
2022/05/12 00:34:00;;;;;;;0.10;0.10;;;;;;;;;;5054657;28;20384;-59
2022/05/12 00:36:26;;;;;;;0.10;0.10;;;;;;;;;;5072381;28;20028;-60
2022/05/12 00:38:51;;;;;;;0.10;0.10;;;;;;;;;;5072508;28;20071;-59
2022/05/12 00:41:17;;;;;;;0.10;0.10;;;;;;;;;;5072470;28;20028;-59
2022/05/12 00:43:44;;;;;;;0.10;0.10;;;;;;;;;;5072648;28;20044;-60
2022/05/12 00:46:11;;;;;;;0.10;0.10;;;;;;;;;;5054255;28;20174;-59
2022/05/12 00:48:37;;;;;;;0.10;0.10;;;;;;;;;;5072130;28;20032;-59
2022/05/12 00:51:04;;;;;;;0.10;0.10;;;;;;;;;;5054492;28;20032;-59
2022/05/12 00:53:32;;;;;;;0.10;0.10;;;;;;;;;;5072241;28;20105;-59
2022/05/12 00:55:59;;;;;;;0.10;0.10;;;;;;;;;;5072074;28;20179;-60
2022/05/12 00:58:25;;;;;;;0.10;0.10;;;;;;;;;;5072133;28;20032;-60
2022/05/12 01:00:50;;;;;;;0.10;0.10;;;;;;;;;;5054153;28;20040;-59
2022/05/12 01:03:18;;;;;;;0.10;0.10;;;;;;;;;;5072298;28;20021;-59
2022/05/12 01:05:44;;;;;;;0.10;0.10;;;;;;;;;;5072221;28;20044;-60
2022/05/12 01:08:11;;;;;;;0.10;0.10;;;;;;;;;;5072112;28;20051;-60
2022/05/12 01:10:39;;;;;;;0.10;0.10;;;;;;;;;;5072465;28;20044;-60
2022/05/12 01:13:04;;;;;;;0.22;0.22;;;;;;;;;;5054022;28;20044;-60
2022/05/12 01:15:30;;;;;;;0.10;0.10;;;;;;;;;;5071745;28;20032;-59
2022/05/12 01:18:06;;;;;;;0.10;0.10;;;;;;;;;;5071997;28;20029;-59
2022/05/12 01:20:32;;;;;;;0.10;0.10;;;;;;;;;;5072050;28;20443;-59
2022/05/12 01:23:05;;;;;;;0.10;0.10;;;;;;;;;;5071821;28;20476;-60
2022/05/12 01:25:31;;;;;;;0.10;0.10;;;;;;;;;;5053953;28;20036;-60
2022/05/12 01:27:56;;;;;;;0.17;0.17;;;;;;;;;;5071563;28;20044;-60
2022/05/12 01:30:23;;;;;;;0.10;0.10;;;;;;;;;;5071745;28;20032;-59
2022/05/12 01:32:49;;;;;;;0.10;0.10;;;;;;;;;;5071801;28;20041;-59
2022/05/12 01:35:16;;;;;;;0.10;0.10;;;;;;;;;;5072024;28;20051;-59
2022/05/12 01:37:42;;;;;;;0.10;0.10;;;;;;;;;;5071710;28;20388;-59
2022/05/12 01:40:09;;;;;;;0.10;0.10;;;;;;;;;;5071580;28;20028;-60
2022/05/12 01:42:34;;;;;;;0.10;0.10;;;;;;;;;;5073676;28;20032;-59
2022/05/12 01:45:00;;;;;;;0.10;0.10;;;;;;;;;;5057114;28;20477;-59
2022/05/12 01:47:25;;;;;;;0.43;0.43;;;;;;;;;;5075187;28;20029;-59
2022/05/12 01:49:51;;;;;;;0.10;0.10;;;;;;;;;;5057136;28;20055;-60
2022/05/12 01:52:16;;;;;;;0.10;0.10;;;;;;;;;;5075037;28;20460;-59
2022/05/12 01:54:42;;;;;;;0.10;0.10;;;;;;;;;;5074782;28;20031;-60
2022/05/12 01:57:07;;;;;;;0.00;0.00;;;;;;;;;;5074737;28;20054;-60
2022/05/12 01:59:33;;;;;;;0.10;0.10;;;;;;;;;;5075116;28;20082;-59
2022/05/12 02:01:59;;;;;;;0.65;0.65;;;;;;;;;;5074784;28;20031;-60
2022/05/12 02:04:24;;;;;;;0.10;0.10;;;;;;;;;;5075074;28;20043;-60
2022/05/12 02:06:50;;;;;;;0.10;0.10;;;;;;;;;;5056883;28;20039;-60
2022/05/12 02:09:16;;;;;;;0.10;0.10;;;;;;;;;;5057023;28;20068;-60
2022/05/12 02:11:42;;;;;;;0.10;0.10;;;;;;;;;;5056520;28;20028;-60
2022/05/12 02:14:07;;;;;;;0.10;0.10;;;;;;;;;;5074689;28;20041;-60
2022/05/12 02:16:33;;;;;;;0.10;0.10;;;;;;;;;;5056545;28;20388;-60
2022/05/12 02:18:59;;;;;;;0.10;0.10;;;;;;;;;;5074526;28;20495;-60
2022/05/12 02:21:25;;;;;;;0.10;0.10;;;;;;;;;;5074587;28;20039;-60
2022/05/12 02:23:50;;;;;;;0.10;0.10;;;;;;;;;;5074413;28;20468;-59
2022/05/12 02:26:16;;;;;;;0.22;0.22;;;;;;;;;;5074386;28;20032;-59
2022/05/12 02:28:42;;;;;;;0.10;0.10;;;;;;;;;;5056303;28;20094;-60
2022/05/12 02:31:07;;;;;;;0.10;0.10;;;;;;;;;;5074458;28;20066;-60
2022/05/12 02:33:33;;;;;;;0.10;0.10;;;;;;;;;;5074480;28;20024;-60
2022/05/12 02:35:58;;;;;;;0.10;0.10;;;;;;;;;;5074585;28;20051;-60
2022/05/12 02:38:24;;;;;;;0.10;0.10;;;;;;;;;;5074337;28;20104;-59
2022/05/12 02:40:50;;;;;;;0.10;0.10;;;;;;;;;;5056331;28;20531;-60
2022/05/12 02:43:24;;;;;;;0.10;0.10;;;;;;;;;;5074172;28;20044;-59
2022/05/12 02:45:56;;;;;;;0.10;0.10;;;;;;;;;;5074226;28;20055;-59
2022/05/12 02:48:28;;;;;;;0.10;0.10;;;;;;;;;;5074303;28;20044;-59
2022/05/12 02:50:53;;;;;;;0.10;0.10;;;;;;;;;;5056033;28;20388;-59
2022/05/12 02:53:19;;;;;;;0.10;0.10;;;;;;;;;;5073262;28;20033;-59
2022/05/12 02:55:45;;;;;;;0.10;0.10;;;;;;;;;;5073656;28;20044;-59
2022/05/12 02:58:11;;;;;;;0.10;0.10;;;;;;;;;;5039545;28;20047;-59
2022/05/12 03:00:37;;;;;;;0.10;0.10;;;;;;;;;;5074137;28;20071;-59
2022/05/12 03:03:02;;;;;;;0.10;0.10;;;;;;;;;;5051652;28;20536;-59
2022/05/12 03:05:28;;;;;;;0.10;0.10;;;;;;;;;;5068527;28;20037;-59
2022/05/12 03:07:53;;;;;;;0.10;0.10;;;;;;;;;;5069604;28;20044;-59
2022/05/12 03:10:19;;;;;;;0.10;0.10;;;;;;;;;;5068880;28;20384;-60
2022/05/12 03:12:45;;;;;;;0.10;0.10;;;;;;;;;;5069653;28;20040;-61
2022/05/12 03:15:12;;;;;;;0.10;0.10;;;;;;;;;;5069428;28;20029;-60
2022/05/12 03:17:38;;;;;;;0.10;0.10;;;;;;;;;;5069059;28;20052;-60
2022/05/12 03:20:05;;;;;;;0.10;0.10;;;;;;;;;;5069123;28;20380;-60
2022/05/12 03:22:30;;;;;;;0.10;0.10;;;;;;;;;;5068966;28;20037;-61
2022/05/12 03:24:56;;;;;;;0.10;0.10;;;;;;;;;;5068896;28;20032;-61
2022/05/12 03:27:22;;;;;;;0.10;0.10;;;;;;;;;;5051418;28;20051;-60
2022/05/12 03:29:48;;;;;;;0.10;0.10;;;;;;;;;;5069066;28;20474;-61
2022/05/12 03:32:13;;;;;;;0.10;0.10;;;;;;;;;;5068820;28;20456;-60
2022/05/12 03:34:39;;;;;;;0.10;0.10;;;;;;;;;;5068734;28;20032;-60
2022/05/12 03:37:08;;;;;;;0.10;0.10;;;;;;;;;;5068859;28;20079;-60
2022/05/12 03:39:34;;;;;;;0.10;0.10;;;;;;;;;;5033805;28;20028;-60
2022/05/12 03:42:00;;;;;;;0.32;0.32;;;;;;;;;;5068736;28;20053;-60
2022/05/12 03:47:12;;;;;;;0.20;0.20;;;;;;;;;;5050582;28;20044;-59
2022/05/12 03:49:38;;;;;;;0.20;0.20;;;;;;;;;;5068557;28;20021;-61
2022/05/12 03:52:04;;;;;;;0.10;0.10;;;;;;;;;;5067385;28;20488;-59
2022/05/12 03:54:29;;;;;;;0.10;0.10;;;;;;;;;;5068268;28;20029;-60
2022/05/12 03:56:55;;;;;;;0.10;0.10;;;;;;;;;;5068468;28;20043;-60
2022/05/12 03:59:20;;;;;;;0.10;0.10;;;;;;;;;;5068535;28;20563;-60
2022/05/12 04:01:46;;;;;;;0.20;0.20;;;;;;;;;;5067431;28;20093;-59
2022/05/12 04:04:12;;;;;;;0.13;0.13;;;;;;;;;;5068141;28;20468;-59
2022/05/12 04:06:37;;;;;;;0.20;0.20;;;;;;;;;;5067308;28;20028;-60
2022/05/12 04:09:03;;;;;;;0.10;0.10;;;;;;;;;;5068602;28;20040;-60
2022/05/12 04:11:28;;;;;;;0.10;0.10;;;;;;;;;;5050603;28;20036;-60
2022/05/12 04:13:54;;;;;;;0.30;0.30;;;;;;;;;;5068122;28;20115;-61
2022/05/12 04:16:20;;;;;;;0.10;0.10;;;;;;;;;;5067922;28;20561;-60
2022/05/12 04:18:46;;;;;;;0.10;0.10;;;;;;;;;;5068016;28;20056;-60
2022/05/12 04:21:11;;;;;;;0.10;0.10;;;;;;;;;;5067816;28;20063;-60
2022/05/12 04:23:38;;;;;;;0.10;0.10;;;;;;;;;;5067832;28;20029;-61
2022/05/12 04:26:03;;;;;;;0.20;0.20;;;;;;;;;;5068142;28;20388;-60
2022/05/12 04:28:30;;;;;;;0.10;0.10;;;;;;;;;;5067873;28;20048;-59
2022/05/12 04:30:56;;;;;;;0.10;0.10;;;;;;;;;;5033557;28;20115;-60
2022/05/12 04:36:06;;;;;;;0.10;0.10;;;;;;;;;;5067608;28;20072;-60
2022/05/12 04:38:32;;;;;;;0.10;0.10;;;;;;;;;;5068065;28;20056;-60
2022/05/12 04:40:57;;;;;;;0.10;0.10;;;;;;;;;;5068143;28;20071;-60
2022/05/12 04:43:22;;;;;;;0.20;0.20;;;;;;;;;;5049967;28;20078;-60
2022/05/12 04:45:49;;;;;;;0.10;0.10;;;;;;;;;;5067698;28;20396;-61
2022/05/12 04:48:14;;;;;;;0.10;0.10;;;;;;;;;;5067838;28;20028;-60
2022/05/12 04:50:40;;;;;;;0.10;0.10;;;;;;;;;;5067874;28;20562;-60
2022/05/12 04:53:06;;;;;;;0.10;0.10;;;;;;;;;;5068050;28;20032;-60
2022/05/12 04:55:33;;;;;;;0.10;0.10;;;;;;;;;;5067591;28;20041;-60
2022/05/12 04:57:59;;;;;;;0.10;0.10;;;;;;;;;;5068311;28;20115;-60
2022/05/12 05:00:30;;;;;;;0.10;0.10;;;;;;;;;;5067400;28;20040;-60
2022/05/12 05:02:56;;;;;;;0.10;0.10;;;;;;;;;;5065959;28;20063;-61
2022/05/12 05:05:21;;;;;;;0.10;0.10;;;;;;;;;;5066367;28;20488;-61
2022/05/12 05:07:47;;;;;;;0.10;0.10;;;;;;;;;;5049976;28;20035;-60
2022/05/12 05:10:13;;;;;;;0.10;0.10;;;;;;;;;;5064611;28;20465;-61
2022/05/12 05:12:39;;;;;;;0.10;0.10;;;;;;;;;;5065827;28;20028;-61
2022/05/12 05:15:05;;;;;;;0.10;0.10;;;;;;;;;;5065960;28;20037;-60
2022/05/12 05:17:31;;;;;;;0.10;0.10;;;;;;;;;;5067595;28;20056;-60
2022/05/12 05:19:57;;;;;;;0.10;0.10;;;;;;;;;;5087337;28;20125;-60
2022/05/12 05:22:22;;;;;;;0.10;0.10;;;;;;;;;;5089035;28;20024;-62
2022/05/12 05:24:48;;;;;;;0.10;0.10;;;;;;;;;;5090822;28;20532;-61
2022/05/12 05:27:14;;;;;;;0.10;0.10;;;;;;;;;;5080929;28;20040;-61
2022/05/12 05:29:40;;;;;;;0.10;0.10;;;;;;;;;;5073088;28;20043;-64
2022/05/12 05:32:06;;;;;;;0.10;0.10;;;;;;;;;;5067838;28;20043;-64
2022/05/12 05:34:31;;;;;;;0.10;0.10;;;;;;;;;;5066270;28;20024;-62
2022/05/12 05:36:57;;;;;;;0.10;0.10;;;;;;;;;;5081684;28;20066;-61
2022/05/12 05:39:24;;;;;;;4.60;4.30;;;;;;;;;;5066646;28;20012;-62
2022/05/12 05:41:51;;;;;;;0.10;0.10;;;;;;;;;;5063959;28;20399;-61
2022/05/12 05:44:16;;;;;;;0.10;0.10;;;;;;;;;;5077894;28;20486;-61
2022/05/12 05:46:42;;;;;;;1.30;1.23;;;;;;;;;;5084768;28;20047;-61
2022/05/12 05:49:07;;;;;;;0.10;0.10;;;;;;;;;;5084411;28;20058;-61
2022/05/12 05:54:17;;;;;;;0.20;0.20;;;;;;;;;;5084955;28;20036;-63
2022/05/12 05:56:43;;;;;;;0.20;0.20;;;;;;;;;;5060123;28;20024;-61
2022/05/12 05:59:08;;;;;;;0.20;0.20;;;;;;;;;;5065121;28;20391;-61
2022/05/12 06:01:34;;;;;;;0.30;0.30;;;;;;;;;;5065462;28;20044;-62
2022/05/12 06:03:59;;;;;;;0.20;0.20;;;;;;;;;;5064316;28;20032;-62
2022/05/12 06:06:25;;;;;;;0.20;0.20;;;;;;;;;;5064778;28;20040;-61
2022/05/12 06:08:51;;;;;;;0.20;0.20;;;;;;;;;;5065218;28;20089;-62
2022/05/12 06:11:16;;;;;;;0.13;0.13;;;;;;;;;;5064712;28;20024;-60
2022/05/12 06:13:44;;;;;;;0.38;0.38;;;;;;;;;;5064324;28;20043;-61
2022/05/12 06:16:09;;;;;;;0.13;0.13;;;;;;;;;;5065455;28;20036;-60
2022/05/12 06:18:36;;;;;;;0.30;0.30;;;;;;;;;;5063795;28;20028;-61
2022/05/12 06:21:04;;;;;;;0.22;0.22;;;;;;;;;;5062820;28;20704;-61
2022/05/12 06:23:29;;;;;;;0.20;0.20;;;;;;;;;;5065231;28;20037;-61
2022/05/12 06:25:55;;;;;;;0.10;0.10;;;;;;;;;;5065149;28;20031;-60
2022/05/12 06:28:20;;;;;;;0.13;0.13;;;;;;;;;;5061829;28;20715;-62
2022/05/12 06:30:46;;;;;;;0.30;0.30;;;;;;;;;;5045513;28;20289;-61
2022/05/12 06:33:18;;;;;;;0.20;0.20;;;;;;;;;;5063564;28;20024;-62
2022/05/12 06:35:43;;;;;;;0.20;0.20;;;;;;;;;;5064505;28;20032;-60
2022/05/12 06:38:10;;;;;;;0.20;0.20;;;;;;;;;;5065045;28;20024;-61
2022/05/12 06:40:36;;;;;;;1.35;1.25;;;;;;;;;;5064452;28;20090;-61
2022/05/12 06:43:05;;;;;;;0.40;0.40;;;;;;;;;;5063500;28;20602;-62
2022/05/12 06:45:30;;;;;;;0.20;0.20;;;;;;;;;;5065554;28;20059;-62
2022/05/12 06:47:56;;;;;;;0.10;0.10;;;;;;;;;;5046269;28;20373;-62
2022/05/12 06:50:26;;;;;;;0.20;0.20;;;;;;;;;;5063497;28;20106;-61
2022/05/12 06:52:53;;;;;;;0.98;0.55;;;;;;;;;;5063866;28;20035;-59
2022/05/12 06:55:19;;;;;;;0.20;0.20;;;;;;;;;;5046161;28;20456;-62
2022/05/12 06:57:45;;;;;;;0.22;0.22;;;;;;;;;;5064283;28;20029;-61
2022/05/12 07:00:15;;;;;;;0.20;0.20;;;;;;;;;;5063177;28;20253;-62
2022/05/12 07:02:45;;;;;;;0.30;0.30;;;;;;;;;;5064838;28;20029;-63
2022/05/12 07:05:12;;;;;;;0.30;0.30;;;;;;;;;;5064069;28;20037;-62
2022/05/12 07:07:37;;;;;;;0.20;0.20;;;;;;;;;;5080681;28;20812;-62
2022/05/12 07:10:04;;;;;;;0.75;0.75;;;;;;;;;;5085077;28;20070;-63
2022/05/12 07:12:29;;;;;;;0.20;0.20;;;;;;;;;;5065947;28;20524;-62
2022/05/12 07:14:56;;;;;;;0.20;0.20;;;;;;;;;;5063856;28;20033;-61
2022/05/12 07:17:22;;;;;;;0.38;0.38;;;;;;;;;;5064873;28;20086;-61
2022/05/12 07:19:48;;;;;;;0.28;0.28;;;;;;;;;;5064900;28;20029;-61
2022/05/12 07:27:42;;;;;;;0.20;0.20;;;;;;;;;;5065970;28;20028;-62
2022/05/12 07:30:08;;;;;;;0.20;0.20;;;;;;;;;;5070102;28;20052;-62
2022/05/12 07:32:37;;;;;;;0.20;0.20;;;;;;;;;;5086099;28;20052;-62
2022/05/12 07:35:06;;;;;;;0.20;0.20;;;;;;;;;;5086080;28;20085;-65
2022/05/12 07:37:31;;;;;;;0.20;0.20;;;;;;;;;;5086136;28;20085;-62
2022/05/12 07:39:57;;;;;;;0.68;0.68;;;;;;;;;;5066290;28;20036;-62
2022/05/12 07:42:23;;;;;;;0.20;0.20;;;;;;;;;;5063976;28;20041;-62
2022/05/12 07:44:48;;;;;;;0.30;0.30;;;;;;;;;;5065956;28;20028;-62
2022/05/12 07:47:14;;;;;;;0.20;0.20;;;;;;;;;;5066017;28;20549;-62
2022/05/12 07:49:40;;;;;;;0.20;0.20;;;;;;;;;;5065502;28;20442;-61
2022/05/12 07:52:07;;;;;;;0.30;0.30;;;;;;;;;;5064188;28;20040;-62
2022/05/12 07:54:33;;;;;;;0.20;0.20;;;;;;;;;;5065014;28;20040;-61
2022/05/12 07:56:58;;;;;;;0.20;0.20;;;;;;;;;;5065599;28;20503;-61
2022/05/12 07:59:27;;;;;;;0.40;0.40;;;;;;;;;;5048029;28;20044;-61
2022/05/12 08:01:53;;;;;;;1.35;1.25;;;;;;;;;;5065587;28;20105;-61
2022/05/12 08:04:18;;;;;;;0.20;0.20;;;;;;;;;;5065128;28;20487;-62
2022/05/12 08:06:44;;;;;;;0.20;0.20;;;;;;;;;;5064788;28;20040;-61
2022/05/12 08:09:10;;;;;;;0.20;0.20;;;;;;;;;;5065711;28;20041;-62
2022/05/12 08:11:36;;;;;;;0.20;0.20;;;;;;;;;;5064713;28;20588;-62
2022/05/12 08:14:01;;;;;;;0.20;0.20;;;;;;;;;;5065466;28;20032;-62
2022/05/12 08:16:27;;;;;;;0.40;0.40;;;;;;;;;;5065199;28;20032;-64
2022/05/12 08:18:52;;;;;;;0.20;0.20;;;;;;;;;;5065156;28;20022;-62
2022/05/12 08:21:19;;;;;;;0.20;0.20;;;;;;;;;;5065309;28;20071;-61
2022/05/12 08:23:45;;;;;;;0.20;0.20;;;;;;;;;;5065355;28;20174;-62
2022/05/12 08:26:11;;;;;;;0.25;0.25;;;;;;;;;;5064889;28;20040;-61
2022/05/12 08:28:37;;;;;;;0.20;0.20;;;;;;;;;;5065500;28;20043;-62
2022/05/12 08:31:03;;;;;;;0.20;0.20;;;;;;;;;;5065157;28;20068;-61
2022/05/12 08:33:29;;;;;;;0.80;0.80;;;;;;;;;;5065430;28;20067;-63
2022/05/12 08:35:54;;;;;;;0.25;0.25;;;;;;;;;;5065354;28;20071;-64
2022/05/12 08:38:21;;;;;;;0.20;0.20;;;;;;;;;;5065320;28;20150;-61
2022/05/12 08:40:47;;;;;;;0.80;0.80;;;;;;;;;;5064901;28;20881;-64
2022/05/12 08:43:17;;;;;;;0.30;0.30;;;;;;;;;;5065055;28;20052;-62
2022/05/12 08:45:44;;;;;;;0.57;0.57;;;;;;;;;;5065346;28;20039;-61
2022/05/12 08:48:11;;;;;;;0.20;0.20;;;;;;;;;;5064646;28;20071;-62
2022/05/12 08:50:39;;;;;;;0.20;0.20;;;;;;;;;;5064847;28;20036;-62
2022/05/12 08:53:09;;;;;;;0.68;0.68;;;;;;;;;;5063774;28;20477;-62
2022/05/12 08:55:41;;;;;;;0.20;0.20;;;;;;;;;;5064648;28;20131;-62
2022/05/12 08:58:08;;;;;;;0.30;0.30;;;;;;;;;;5064635;28;20090;-63
2022/05/12 09:00:39;;;;;;;0.20;0.20;;;;;;;;;;5064802;28;20485;-62
2022/05/12 09:03:13;;;;;;;0.30;0.30;;;;;;;;;;5065143;28;20090;-63
2022/05/12 09:05:44;;;;;;;0.20;0.20;;;;;;;;;;5045941;28;20043;-62
2022/05/12 09:08:19;;;;;;;0.40;0.40;;;;;;;;;;5064505;28;20123;-61
2022/05/12 09:10:53;;;;;;;0.30;0.30;;;;;;;;;;5064927;28;20028;-62
2022/05/12 09:13:29;;;;;;;0.20;0.20;;;;;;;;;;5074729;28;20105;-61
2022/05/12 09:16:14;;;;;;;0.20;0.20;;;;;;;;;;5061423;28;20601;-61
2022/05/12 09:18:40;;;;;;;0.25;0.25;;;;;;;;;;5060805;28;20492;-62
2022/05/12 09:21:10;;;;;;;0.20;0.20;;;;;;;;;;5061984;28;20039;-62
2022/05/12 09:23:37;;;;;;;0.40;0.40;;;;;;;;;;5062125;28;20040;-63
2022/05/12 09:26:21;;;;;;;0.20;0.20;;;;;;;;;;5061089;28;20056;-62
2022/05/12 09:28:47;;;;;;;0.20;0.20;;;;;;;;;;5062166;28;20047;-63
2022/05/12 09:31:12;;;;;;;0.22;0.22;;;;;;;;;;5062293;28;20029;-62
2022/05/12 09:33:39;;;;;;;1.90;1.80;;;;;;;;;;5060842;28;20444;-62
2022/05/12 09:36:13;;;;;;;8.38;1.05;;;;;;;;;;5060934;28;20033;-62
2022/05/12 09:38:40;;;;;;;0.38;0.38;;;;;;;;;;5062175;28;20508;-62
2022/05/12 09:41:21;;;;;;;2.45;1.80;;;;;;;;;;5061241;28;20058;-63
2022/05/12 09:43:50;;;;;;;0.30;0.30;;;;;;;;;;5044843;28;20041;-62
2022/05/12 09:46:29;;;;;;;0.40;0.40;;;;;;;;;;5061935;28;20086;-62
2022/05/12 09:48:54;;;;;;;;;;;;;;;;;;5063133;28;20028;-62
2022/05/12 09:51:32;;;;;;;0.63;0.63;;;;;;;;;;5062301;28;20085;-63
2022/05/12 09:54:17;;;;;;;0.30;0.30;;;;;;;;;;5061515;28;20033;-64
2022/05/12 09:56:46;;;;;;;0.50;0.50;;;;;;;;;;5062134;28;20055;-61
2022/05/12 09:59:14;;;;;;;0.65;0.60;;;;;;;;;;5060895;28;20112;-62
2022/05/12 10:02:00;;;;;;;1.10;0.83;;;;;;;;;;5061192;28;20036;-62
2022/05/12 10:10:01;;;;;;;0.82;0.75;;;;;;;;;;5071350;28;20036;-62
2022/05/12 10:12:31;;;;;;;0.75;0.68;;;;;;;;;;5064700;28;20033;-64
2022/05/12 10:14:59;;;;;;;0.20;0.20;;;;;;;;;;5062667;28;20451;-63
2022/05/12 10:17:26;;;;;;;0.30;0.30;;;;;;;;;;5064224;28;20129;-62
2022/05/12 10:19:51;;;;;;;0.50;0.50;;;;;;;;;;5065251;28;20040;-64
2022/05/12 10:22:18;;;;;;;0.20;0.20;;;;;;;;;;5063724;28;20063;-62
2022/05/12 10:24:53;;;;;;;0.20;0.20;;;;;;;;;;5064125;28;20048;-62
2022/05/12 10:27:29;;;;;;;0.65;0.65;;;;;;;;;;5064015;28;20028;-63
2022/05/12 10:30:01;;;;;;;0.95;0.88;;;;;;;;;;5064396;28;20032;-63
2022/05/12 10:32:29;;;;;;;0.95;0.95;;;;;;;;;;5064336;28;20043;-61
2022/05/12 10:35:03;;;;;;;1.58;1.33;;;;;;;;;;5064141;28;20047;-61
2022/05/12 10:37:33;;;;;;;6.18;3.17;;;;;;;;;;5063981;28;20044;-63
2022/05/12 10:40:10;;;;;;;1.85;1.27;;;;;;;;;;5064403;28;20316;-61
2022/05/12 10:42:36;;;;;;;1.52;1.15;;;;;;;;;;5047203;28;20147;-61
2022/05/12 10:45:07;;;;;;;5.30;0.70;;;;;;;;;;5065020;28;20028;-62
2022/05/12 10:47:45;;;;;;;0.90;0.82;;;;;;;;;;5064987;28;20040;-62
2022/05/12 10:50:19;;;;;;;0.20;0.20;;;;;;;;;;5049003;28;20028;-61
2022/05/12 10:52:53;;;;;;;2.92;2.00;;;;;;;;;;5084278;28;20040;-62
2022/05/12 10:55:31;;;;;;;1.65;1.30;;;;;;;;;;5084995;28;20031;-62
2022/05/12 10:57:59;;;;;;;3.95;1.27;;;;;;;;;;5066520;28;20511;-62
2022/05/12 11:00:25;;;;;;;0.40;0.40;;;;;;;;;;5084157;28;20079;-60
2022/05/12 11:02:54;;;;;;;0.90;0.82;;;;;;;;;;5085111;28;20032;-61
2022/05/12 11:05:40;;;;;;;6.40;4.38;;;;;;;;;;5084100;28;20148;-61
2022/05/12 11:08:14;;;;;;;8.10;5.65;;;;;;;;;;5084259;28;20032;-63
2022/05/12 11:10:44;;;;;;;0.30;0.30;;;;;;;;;;5084327;28;20119;-60
2022/05/12 11:13:33;;;;;;;1.67;1.38;;;;;;;;;;5087261;28;20060;-60
2022/05/12 11:16:00;;;;;;;0.47;0.47;;;;;;;;;;5043771;28;20048;-62
2022/05/12 11:18:33;;;;;;;3.25;1.90;;;;;;;;;;5085818;28;20032;-60
2022/05/12 11:21:01;;;;;;;3.15;2.25;;;;;;;;;;5088955;28;20444;-61
2022/05/12 11:23:40;;;;;;;2.25;1.20;;;;;;;;;;5080143;28;20836;-62
2022/05/12 11:26:15;;;;;;;0.30;0.30;;;;;;;;;;5050148;28;20036;-65
2022/05/12 11:31:32;;;;;;;2.45;2.25;;;;;;;;;;5075281;28;20498;-62
2022/05/12 11:34:01;;;;;;;0.70;0.70;;;;;;;;;;5089284;28;20123;-62
2022/05/12 11:36:40;;;;;;;1.45;1.35;;;;;;;;;;5069255;28;20040;-61
2022/05/12 11:39:24;;;;;;;7.13;2.10;;;;;;;;;;5087895;28;20353;-62
2022/05/12 11:42:04;;;;;;;6.95;2.95;;;;;;;;;;5086406;28;20560;-61
2022/05/12 11:44:38;;;;;;;6.40;2.40;;;;;;;;;;5087259;28;20035;-61
2022/05/12 11:47:22;;;;;;;0.45;0.45;;;;;;;;;;5087565;28;20442;-63
2022/05/12 11:50:05;;;;;;;6.55;3.17;;;;;;;;;;5078843;28;20173;-61
2022/05/12 11:52:44;;;;;;;6.13;2.65;;;;;;;;;;5087479;28;20043;-61
2022/05/12 11:55:21;;;;;;;4.50;2.95;;;;;;;;;;5087003;28;20035;-61
2022/05/12 11:57:56;;;;;;;1.27;0.93;;;;;;;;;;5087722;28;20036;-62
2022/05/12 12:00:34;;;;;;;2.78;1.63;;;;;;;;;;5087466;28;20097;-61
2022/05/12 12:03:15;;;;;;;1.63;1.48;;;;;;;;;;5088880;28;20067;-61
2022/05/12 12:05:40;;;;;;;4.43;2.92;;;;;;;;;;5088340;28;20112;-62
2022/05/12 12:08:08;;;;;;;0.50;0.50;;;;;;;;;;5087751;28;20116;-64
2022/05/12 12:10:36;;;;;;;10.55;3.95;;;;;;;;;;5086639;28;20032;-61
2022/05/12 12:13:03;;;;;;;7.47;4.72;;;;;;;;;;5087271;28;20103;-60
2022/05/12 12:15:35;;;;;;;5.45;3.53;;;;;;;;;;5088402;28;20114;-61
2022/05/12 12:18:25;;;;;;;5.45;3.60;;;;;;;;;;5088326;28;20135;-61
2022/05/12 12:20:59;;;;;;;14.98;2.15;;;;;;;;;;5087777;28;20475;-62
2022/05/12 12:23:34;;;;;;;3.22;1.85;;;;;;;;;;5086515;28;20055;-60
2022/05/12 12:26:09;;;;;;;2.83;1.45;;;;;;;;;;5085646;28;20713;-62
2022/05/12 12:28:53;;;;;;;6.53;4.03;;;;;;;;;;5086636;28;20122;-62
2022/05/12 12:31:24;;;;;;;3.00;2.38;;;;;;;;;;5086402;28;20372;-61
2022/05/12 12:33:58;;;;;;;1.42;1.33;;;;;;;;;;5074558;28;20036;-62
2022/05/12 12:36:30;;;;;;;1.05;1.05;;;;;;;;;;5066063;28;20063;-62
2022/05/12 12:38:55;;;;;;;1.48;1.17;;;;;;;;;;5066171;28;20035;-62
2022/05/12 12:41:28;;;;;;;2.58;2.10;;;;;;;;;;5066206;28;20947;-62
2022/05/12 12:44:17;;;;;;;6.13;2.95;;;;;;;;;;5067422;28;20029;-60
2022/05/12 12:46:54;;;;;;;5.47;2.65;;;;;;;;;;5067625;28;20040;-61
2022/05/12 12:49:20;;;;;;;3.33;2.45;;;;;;;;;;5066210;28;20480;-62
2022/05/12 12:51:51;;;;;;;3.40;1.58;;;;;;;;;;5066310;28;20042;-62
2022/05/12 12:57:41;;;;;;;4.78;2.55;;;;;;;;;;5056690;28;20052;-61
2022/05/12 13:00:08;;;;;;;1.45;1.05;;;;;;;;;;5065779;28;20391;-64
2022/05/12 13:02:41;;;;;;;4.05;2.30;;;;;;;;;;5065611;28;20113;-61
2022/05/12 13:05:26;;;;;;;11.77;2.70;;;;;;;;;;5065611;28;20029;-61
2022/05/12 13:08:00;;;;;;;2.38;1.80;;;;;;;;;;5065661;28;20141;-61
2022/05/12 13:10:26;;;;;;;1.80;1.30;;;;;;;;;;5065517;28;20404;-60
2022/05/12 13:12:53;;;;;;;6.55;1.75;;;;;;;;;;5061310;28;20041;-63
2022/05/12 13:15:20;;;;;;;5.65;1.73;;;;;;;;;;5060705;28;20040;-61
2022/05/12 13:17:49;;;;;;;6.00;1.85;;;;;;;;;;5066600;28;20120;-62
2022/05/12 13:20:14;;;;;;;;;;;;;;;;;;5067056;28;20032;-62
2022/05/12 13:22:44;;;;;;;3.47;1.57;;;;;;;;;;5083114;28;19912;-61
2022/05/12 13:25:11;;;;;;;3.42;1.48;;;;;;;;;;5066953;28;20271;-61
2022/05/12 13:27:38;;;;;;;3.25;1.45;;;;;;;;;;5072078;28;20115;-61
2022/05/12 13:30:13;;;;;;;3.15;1.20;;;;;;;;;;5069659;28;20428;-61
2022/05/12 13:32:45;;;;;;;2.00;1.27;;;;;;;;;;5071405;28;20473;-63
2022/05/12 13:35:16;;;;;;;1.60;1.08;;;;;;;;;;5069283;28;20089;-62
2022/05/12 13:38:05;;;;;;;0.63;0.63;;;;;;;;;;5046694;28;20051;-61
2022/05/12 13:40:38;;;;;;;0.90;0.57;;;;;;;;;;5040220;28;20049;-63
2022/05/12 13:43:04;;;;;;;2.13;0.90;;;;;;;;;;5048985;28;20047;-61
2022/05/12 13:45:31;;;;;;;1.20;0.65;;;;;;;;;;5051013;28;20037;-64
2022/05/12 13:47:58;;;;;;;7.20;1.42;;;;;;;;;;5088774;28;20059;-63
2022/05/12 13:50:53;;;;;;;3.30;0.82;;;;;;;;;;5088553;28;20032;-62
2022/05/12 13:53:32;;;;;;;0.70;0.70;;;;;;;;;;5073028;28;20055;-62
2022/05/12 13:56:27;;;;;;;1.23;0.85;;;;;;;;;;5088594;28;20047;-62
2022/05/12 13:58:54;;;;;;;12.50;0.85;;;;;;;;;;5051113;28;20044;-61
2022/05/12 14:01:28;;;;;;;1.83;1.45;;;;;;;;;;5067720;28;20064;-63
2022/05/12 14:04:13;;;;;;;1.80;1.05;;;;;;;;;;5070376;28;20074;-62
2022/05/12 14:06:40;;;;;;;1.20;0.80;;;;;;;;;;5070605;28;20028;-62
2022/05/12 14:09:08;;;;;;;0.50;0.50;;;;;;;;;;5070470;28;20090;-62
2022/05/12 14:11:33;;;;;;;5.13;1.92;;;;;;;;;;5070396;28;20120;-61
2022/05/12 14:19:41;;;;;;;6.45;1.63;;;;;;;;;;5088217;28;20719;-62
2022/05/12 14:22:08;;;;;;;0.85;0.70;;;;;;;;;;5053291;28;20427;-62
2022/05/12 14:24:35;;;;;;;2.35;1.27;;;;;;;;;;5088449;28;20078;-62
2022/05/12 14:27:01;;;;;;;5.65;1.80;;;;;;;;;;5070031;28;20024;-61
2022/05/12 14:29:27;;;;;;;0.60;0.60;;;;;;;;;;5088518;28;20483;-62
2022/05/12 14:31:54;;;;;;;5.80;1.75;;;;;;;;;;5088759;28;20039;-61
2022/05/12 14:34:19;;;;;;;1.27;1.10;;;;;;;;;;5085457;28;20036;-63
2022/05/12 14:36:45;;;;;;;1.20;1.00;;;;;;;;;;5084474;28;20040;-63
2022/05/12 14:39:11;;;;;;;2.75;1.23;;;;;;;;;;5089686;28;20040;-62
2022/05/12 14:41:37;;;;;;;2.83;1.30;;;;;;;;;;5071621;28;20123;-62
2022/05/12 14:44:04;;;;;;;0.50;0.50;;;;;;;;;;5090033;28;20115;-61
2022/05/12 14:46:34;;;;;;;3.28;1.55;;;;;;;;;;5089216;28;20043;-61
2022/05/12 14:49:00;;;;;;;4.20;1.17;;;;;;;;;;5082047;28;20037;-62
2022/05/12 14:51:26;;;;;;;2.55;1.15;;;;;;;;;;5088653;28;20028;-61
2022/05/12 14:53:51;;;;;;;3.50;1.38;;;;;;;;;;5089080;28;20027;-65
2022/05/12 14:56:17;;;;;;;3.22;1.70;;;;;;;;;;5072677;28;20040;-62
2022/05/12 14:58:42;;;;;;;1.25;0.98;;;;;;;;;;5069340;28;20036;-60
2022/05/12 15:01:08;;;;;;;1.92;1.08;;;;;;;;;;5050259;28;20028;-61
2022/05/12 15:03:35;;;;;;;9.48;2.28;;;;;;;;;;5068399;28;20119;-60
2022/05/12 15:06:02;;;;;;;2.47;0.85;;;;;;;;;;5079340;28;20039;-61
2022/05/12 15:08:27;;;;;;;1.67;1.58;;;;;;;;;;5068954;28;20020;-64
2022/05/12 15:10:54;;;;;;;5.97;1.08;;;;;;;;;;5069652;28;20389;-63
2022/05/12 15:13:19;;;;;;;8.27;1.45;;;;;;;;;;5069093;28;20040;-62
2022/05/12 15:15:45;;;;;;;0.63;0.57;;;;;;;;;;5068772;28;20040;-62
2022/05/12 15:18:11;;;;;;;1.77;1.17;;;;;;;;;;5068510;28;20036;-62
2022/05/12 15:20:37;;;;;;;3.00;0.85;;;;;;;;;;5071315;28;20056;-62
2022/05/12 15:23:02;;;;;;;1.17;0.88;;;;;;;;;;5069228;28;20040;-62